Adams, Tennessee
Current Conditions -  °F | °C
As of 6:55 PM on Friday 19 Dec 2014 (Local Time) from KM91 Reporting Station
Clear Clear  
Wind Chill: -3°   Ceiling: Unl
Heat Index:   Visibility: 10mi
Dew Point: -1°   Wind: 5mph
Humidity: 93%   Direction: 50°NE
Pressure: 30.23"   Gusts: NA
Location:  36.58°N, 87.07°W
Report Text: KM91 200055Z AUTO 05004KT 10SM CLR 00/M01 A3023 RMK
Loading
Personal Weather Stations






























Interactive Weather Map New forecast layout! Learn more

10-Day Weather Forecast

Advertisements
Track Severe Weather on mobile